createdAt,value
2019-06-27T00:02:18.300Z,101560.00
2019-06-27T00:04:47.988Z,101560.00
2019-06-27T00:07:18.196Z,101554.00
2019-06-27T00:09:47.966Z,101555.00
2019-06-27T00:12:18.080Z,101564.00
2019-06-27T00:14:47.773Z,101567.00
2019-06-27T00:17:17.548Z,101568.00
2019-06-27T00:19:47.275Z,101568.00
2019-06-27T00:22:17.258Z,101573.00
2019-06-27T00:24:47.248Z,101579.00
2019-06-27T00:27:16.981Z,101577.00
2019-06-27T00:29:46.663Z,101581.00
2019-06-27T00:32:16.438Z,101592.00
2019-06-27T00:34:46.110Z,101590.00
2019-06-27T00:37:15.837Z,101597.00
2019-06-27T00:39:45.638Z,101599.00
2019-06-27T00:42:15.339Z,101599.00
2019-06-27T00:44:45.015Z,101608.00
2019-06-27T00:47:14.773Z,101614.00
2019-06-27T00:49:44.460Z,101613.00
2019-06-27T00:52:14.134Z,101614.00
2019-06-27T00:54:43.828Z,101613.00
2019-06-27T00:57:14.798Z,101618.00
2019-06-27T00:59:44.717Z,101620.00
2019-06-27T01:02:14.383Z,101620.00
2019-06-27T01:04:44.057Z,101613.00
2019-06-27T01:07:13.793Z,101622.00
2019-06-27T01:09:43.478Z,101624.00
2019-06-27T01:12:13.168Z,101624.00
2019-06-27T01:14:42.914Z,101633.00
2019-06-27T01:17:15.460Z,101619.00
2019-06-27T01:19:45.154Z,101627.00
2019-06-27T01:22:15.197Z,101621.00
2019-06-27T01:24:44.876Z,101632.00
2019-06-27T01:27:29.085Z,101633.00
2019-06-27T01:29:46.014Z,101636.00
2019-06-27T01:32:15.707Z,101625.00
2019-06-27T01:34:45.461Z,101636.00
2019-06-27T01:37:15.129Z,101644.00
2019-06-27T01:39:44.830Z,101644.00
2019-06-27T01:42:14.544Z,101641.00
2019-06-27T01:44:49.381Z,101637.00
2019-06-27T01:47:19.173Z,101638.00
2019-06-27T01:49:48.866Z,101654.00
2019-06-27T01:52:18.531Z,101649.00
2019-06-27T01:54:55.450Z,101667.00
2019-06-27T01:57:25.167Z,101664.00
2019-06-27T01:59:54.892Z,101659.00
2019-06-27T02:02:24.666Z,101660.00
2019-06-27T02:05:03.898Z,101668.00
2019-06-27T02:07:33.577Z,101661.00
2019-06-27T02:10:03.348Z,101671.00
2019-06-27T02:12:33.049Z,101671.00
2019-06-27T02:15:02.744Z,101673.00
2019-06-27T02:17:32.750Z,101677.00
2019-06-27T02:20:02.909Z,101680.00
2019-06-27T02:22:32.733Z,101669.00
2019-06-27T02:25:02.475Z,101664.00
2019-06-27T02:27:32.145Z,101668.00
2019-06-27T02:30:01.861Z,101668.00
2019-06-27T02:32:31.543Z,101669.00
2019-06-27T02:35:01.595Z,101666.00
2019-06-27T02:37:31.268Z,101669.00
2019-06-27T02:40:01.221Z,101673.00
2019-06-27T02:42:30.952Z,101662.00
2019-06-27T02:45:00.619Z,101686.00
2019-06-27T02:47:30.352Z,101681.00
2019-06-27T02:50:00.062Z,101675.00
2019-06-27T02:52:29.782Z,101684.00
2019-06-27T02:54:59.481Z,101686.00
2019-06-27T02:57:29.144Z,101679.00
2019-06-27T02:59:58.872Z,101691.00
2019-06-27T03:02:28.543Z,101688.00
2019-06-27T03:04:58.249Z,101706.00
2019-06-27T03:07:28.299Z,101696.00
2019-06-27T03:09:57.999Z,101681.00
2019-06-27T03:12:27.701Z,101690.00
2019-06-27T03:14:57.326Z,101690.00
2019-06-27T03:17:27.101Z,101686.00
2019-06-27T03:19:56.966Z,101691.00
2019-06-27T03:22:26.753Z,101694.00
2019-06-27T03:24:56.448Z,101688.00
2019-06-27T03:27:45.429Z,101686.00
2019-06-27T03:30:15.262Z,101701.00
2019-06-27T03:32:44.920Z,101700.00
2019-06-27T03:35:14.710Z,101715.00
2019-06-27T03:37:44.636Z,101710.00
2019-06-27T03:40:14.616Z,101701.00
2019-06-27T03:42:44.419Z,101713.00
2019-06-27T03:45:16.052Z,101712.00
2019-06-27T03:47:45.946Z,101716.00
2019-06-27T03:50:16.497Z,101722.00
2019-06-27T03:52:46.184Z,101713.00
2019-06-27T03:55:15.874Z,101717.00
2019-06-27T03:57:45.792Z,101723.00
2019-06-27T04:00:24.105Z,101714.00
2019-06-27T04:02:53.845Z,101718.00
2019-06-27T04:05:23.544Z,101725.00
2019-06-27T04:07:53.496Z,101721.00
2019-06-27T04:10:23.184Z,101730.00
2019-06-27T04:12:53.499Z,101736.00
2019-06-27T04:15:23.258Z,101735.00
2019-06-27T04:17:52.939Z,101737.00
2019-06-27T04:20:22.619Z,101747.00
2019-06-27T04:22:52.319Z,101754.00
2019-06-27T04:25:22.138Z,101745.00
2019-06-27T04:27:51.807Z,101744.00
2019-06-27T04:30:21.711Z,101752.00
2019-06-27T04:32:51.472Z,101747.00
2019-06-27T04:35:21.199Z,101739.00
2019-06-27T04:37:50.903Z,101738.00
2019-06-27T04:40:20.613Z,101742.00
2019-06-27T04:42:50.279Z,101754.00
2019-06-27T04:45:19.988Z,101753.00
2019-06-27T04:47:49.780Z,101750.00
2019-06-27T04:50:19.745Z,101749.00
2019-06-27T04:52:49.446Z,101745.00
2019-06-27T04:55:19.438Z,101753.00
2019-06-27T04:57:49.221Z,101753.00
2019-06-27T05:00:28.683Z,101745.00
2019-06-27T05:02:58.867Z,101754.00
2019-06-27T05:05:28.598Z,101750.00
2019-06-27T05:07:58.282Z,101754.00
2019-06-27T05:10:28.281Z,101750.00
2019-06-27T05:12:58.036Z,101756.00
2019-06-27T05:15:27.783Z,101753.00
2019-06-27T05:17:57.478Z,101753.00
2019-06-27T05:20:27.277Z,101762.00
2019-06-27T05:22:56.953Z,101757.00
2019-06-27T05:25:29.616Z,101749.00
2019-06-27T05:27:58.158Z,101746.00
2019-06-27T05:30:27.831Z,101745.00
2019-06-27T05:32:57.502Z,101758.00
2019-06-27T05:35:27.254Z,101760.00
2019-06-27T05:37:57.209Z,101755.00
2019-06-27T05:41:04.221Z,101754.00
2019-06-27T05:43:33.919Z,101754.00
2019-06-27T05:46:03.704Z,101756.00
2019-06-27T05:48:33.395Z,101755.00
2019-06-27T05:51:03.081Z,101756.00
2019-06-27T05:53:32.810Z,101753.00
2019-06-27T05:56:02.789Z,101755.00
2019-06-27T05:58:32.445Z,101765.00
2019-06-27T06:01:02.166Z,101758.00
2019-06-27T06:03:31.882Z,101768.00
2019-06-27T06:06:01.632Z,101767.00
2019-06-27T06:08:31.531Z,101768.00
2019-06-27T06:11:01.297Z,101770.00
2019-06-27T06:13:30.971Z,101774.00
2019-06-27T06:16:01.397Z,101772.00
2019-06-27T06:18:31.341Z,101766.00
2019-06-27T06:21:01.037Z,101764.00
2019-06-27T06:23:30.781Z,101767.00
2019-06-27T06:26:00.545Z,101767.00
2019-06-27T06:28:30.406Z,101762.00
2019-06-27T06:31:19.356Z,101774.00
2019-06-27T06:33:49.365Z,101767.00
2019-06-27T06:36:19.099Z,101770.00
2019-06-27T06:38:48.844Z,101777.00
2019-06-27T06:41:18.526Z,101765.00
2019-06-27T06:43:48.510Z,101779.00
2019-06-27T06:46:37.499Z,101778.00
2019-06-27T06:49:07.169Z,101776.00
2019-06-27T06:51:37.201Z,101765.00
2019-06-27T06:54:07.204Z,101785.00
2019-06-27T06:56:36.958Z,101782.00
2019-06-27T06:59:06.882Z,101734.00
2019-06-27T07:01:36.742Z,101776.00
2019-06-27T07:04:07.097Z,101772.00
2019-06-27T07:06:37.053Z,101779.00
2019-06-27T07:09:06.962Z,101786.00
2019-06-27T07:11:36.740Z,101779.00
2019-06-27T07:14:06.816Z,101777.00
2019-06-27T07:16:36.550Z,101769.00
2019-06-27T07:19:06.252Z,101774.00
2019-06-27T07:21:35.946Z,101780.00
2019-06-27T07:24:05.786Z,101772.00
2019-06-27T07:26:35.539Z,101771.00
2019-06-27T07:29:05.425Z,101783.00
2019-06-27T07:31:35.393Z,101791.00
2019-06-27T07:34:05.646Z,101783.00
2019-06-27T07:36:35.510Z,101793.00
2019-06-27T07:39:06.013Z,101784.00
2019-06-27T07:41:35.718Z,101781.00
2019-06-27T07:44:05.366Z,101792.00
2019-06-27T07:46:35.163Z,101786.00
2019-06-27T07:49:05.124Z,101787.00
2019-06-27T07:51:34.790Z,101786.00
2019-06-27T07:54:04.597Z,101783.00
2019-06-27T07:56:34.267Z,101785.00
2019-06-27T07:59:03.922Z,101787.00
2019-06-27T08:01:35.416Z,101792.00
2019-06-27T08:04:05.290Z,101788.00
2019-06-27T08:06:34.938Z,101787.00
2019-06-27T08:09:05.060Z,101785.00
2019-06-27T08:11:34.709Z,101786.00
2019-06-27T08:14:04.493Z,101789.00
2019-06-27T08:16:55.010Z,101793.00
2019-06-27T08:19:24.835Z,101797.00
2019-06-27T08:21:54.509Z,101790.00
2019-06-27T08:24:24.450Z,101793.00
2019-06-27T08:26:54.159Z,101793.00
2019-06-27T08:29:23.853Z,101783.00
2019-06-27T08:31:53.568Z,101779.00
2019-06-27T08:34:23.268Z,101783.00
2019-06-27T08:36:52.927Z,101786.00
2019-06-27T08:39:22.842Z,101784.00
2019-06-27T08:41:52.579Z,101775.00
2019-06-27T08:44:22.245Z,101787.00
2019-06-27T08:46:51.911Z,101782.00
2019-06-27T08:49:21.715Z,101779.00
2019-06-27T08:51:51.441Z,101782.00
2019-06-27T08:54:21.259Z,101779.00
2019-06-27T08:56:50.952Z,101774.00
2019-06-27T08:59:26.775Z,101777.00
2019-06-27T09:02:08.006Z,101772.00
2019-06-27T09:04:27.898Z,101767.00
2019-06-27T09:06:57.565Z,101778.00
2019-06-27T09:09:27.320Z,101765.00
2019-06-27T09:11:57.016Z,101762.00
2019-06-27T09:14:26.691Z,101763.00
2019-06-27T09:16:56.459Z,101765.00
2019-06-27T09:19:26.438Z,101755.00
2019-06-27T09:21:56.101Z,101756.00
2019-06-27T09:24:25.835Z,101754.00
2019-06-27T09:26:55.544Z,101749.00
2019-06-27T09:29:25.285Z,101759.00
2019-06-27T09:32:24.772Z,101764.00
2019-06-27T09:34:45.819Z,101752.00
2019-06-27T09:37:15.556Z,101757.00
2019-06-27T09:39:45.241Z,101762.00
2019-06-27T09:42:14.895Z,101751.00
2019-06-27T09:44:44.898Z,101766.00
2019-06-27T09:47:14.602Z,101754.00
2019-06-27T09:49:44.327Z,101755.00
2019-06-27T09:52:14.133Z,101752.00
2019-06-27T09:54:43.792Z,101762.00
2019-06-27T09:57:13.534Z,101756.00
2019-06-27T09:59:43.591Z,101754.00
2019-06-27T10:02:41.770Z,101756.00
2019-06-27T10:05:04.457Z,101746.00
2019-06-27T10:07:34.216Z,101742.00
2019-06-27T10:10:04.207Z,101753.00
2019-06-27T10:12:42.118Z,101755.00
2019-06-27T10:15:05.958Z,101758.00
2019-06-27T10:17:35.754Z,101761.00
2019-06-27T10:20:07.038Z,101761.00
2019-06-27T10:22:37.194Z,101758.00
2019-06-27T10:25:07.050Z,101756.00
2019-06-27T10:27:36.963Z,101754.00
2019-06-27T10:30:08.416Z,101752.00
2019-06-27T10:32:38.098Z,101758.00
2019-06-27T10:35:07.842Z,101759.00
2019-06-27T10:37:37.832Z,101752.00
2019-06-27T10:40:08.788Z,101760.00
2019-06-27T10:42:38.537Z,101757.00
2019-06-27T10:45:08.948Z,101748.00
2019-06-27T10:47:38.883Z,101750.00
2019-06-27T10:50:10.805Z,101753.00
2019-06-27T10:52:41.198Z,101754.00
2019-06-27T10:55:11.072Z,101759.00
2019-06-27T10:57:40.748Z,101747.00
2019-06-27T11:00:11.140Z,101755.00
2019-06-27T11:02:40.965Z,101742.00
2019-06-27T11:05:11.742Z,101747.00
2019-06-27T11:07:41.473Z,101755.00
2019-06-27T11:10:12.145Z,101747.00
2019-06-27T11:12:44.993Z,101753.00
2019-06-27T11:15:15.003Z,101748.00
2019-06-27T11:17:44.742Z,101741.00
2019-06-27T11:20:15.541Z,101746.00
2019-06-27T11:22:45.402Z,101748.00
2019-06-27T11:25:15.498Z,101750.00
2019-06-27T11:27:45.413Z,101747.00
2019-06-27T11:30:17.923Z,101741.00
2019-06-27T11:32:47.575Z,101730.00
2019-06-27T11:35:17.237Z,101732.00
2019-06-27T11:37:47.198Z,101729.00
2019-06-27T11:40:18.736Z,101737.00
2019-06-27T11:42:48.397Z,101729.00
2019-06-27T11:45:18.330Z,101727.00
2019-06-27T11:47:47.994Z,101732.00
2019-06-27T11:50:18.186Z,101734.00
2019-06-27T11:52:47.875Z,101721.00
2019-06-27T11:55:17.602Z,101730.00
2019-06-27T11:57:47.332Z,101726.00
2019-06-27T12:00:17.807Z,101717.00
2019-06-27T12:02:47.696Z,101721.00
2019-06-27T12:05:17.529Z,101715.00
2019-06-27T12:07:47.499Z,101707.00
2019-06-27T12:10:17.662Z,101719.00
2019-06-27T12:12:47.385Z,101723.00
2019-06-27T12:15:17.150Z,101731.00
2019-06-27T12:17:46.970Z,101723.00
2019-06-27T12:20:17.185Z,101716.00
2019-06-27T12:22:46.857Z,101714.00
2019-06-27T12:25:17.266Z,101707.00
2019-06-27T12:27:47.006Z,101715.00
2019-06-27T12:30:18.857Z,101705.00
2019-06-27T12:32:52.369Z,101700.00
2019-06-27T12:35:19.922Z,101702.00
2019-06-27T12:37:49.845Z,101709.00
2019-06-27T12:40:20.252Z,101704.00
2019-06-27T12:42:49.932Z,101700.00
2019-06-27T12:45:19.906Z,101697.00
2019-06-27T12:47:49.617Z,101709.00
2019-06-27T12:50:19.386Z,101698.00
2019-06-27T12:52:49.109Z,101696.00
2019-06-27T12:55:18.823Z,101698.00
2019-06-27T12:57:48.511Z,101696.00
2019-06-27T13:00:19.958Z,101692.00
2019-06-27T13:02:50.029Z,101699.00
2019-06-27T13:05:20.735Z,101688.00
2019-06-27T13:07:50.719Z,101683.00
2019-06-27T13:10:22.563Z,101675.00
2019-06-27T13:12:52.494Z,101679.00
2019-06-27T13:15:22.460Z,101683.00
2019-06-27T13:17:52.153Z,101669.00
2019-06-27T13:20:22.118Z,101683.00
2019-06-27T13:22:51.809Z,101666.00
2019-06-27T13:25:21.572Z,101673.00
2019-06-27T13:28:10.812Z,101663.00
2019-06-27T13:30:40.488Z,101663.00
2019-06-27T13:33:10.164Z,101662.00
2019-06-27T13:35:39.953Z,101661.00
2019-06-27T13:38:09.651Z,101655.00
2019-06-27T13:40:39.333Z,101658.00
2019-06-27T13:43:09.121Z,101653.00
2019-06-27T13:45:39.082Z,101657.00
2019-06-27T13:48:08.753Z,101650.00
2019-06-27T13:50:38.682Z,101661.00
2019-06-27T13:53:08.647Z,101665.00
2019-06-27T13:55:38.342Z,101647.00
2019-06-27T13:58:08.431Z,101645.00
2019-06-27T14:00:44.933Z,101643.00
2019-06-27T14:03:14.809Z,101656.00
2019-06-27T14:05:44.554Z,101638.00
2019-06-27T14:08:14.336Z,101650.00
2019-06-27T14:10:44.013Z,101639.00
2019-06-27T14:13:13.698Z,101637.00
2019-06-27T14:15:43.390Z,101643.00
2019-06-27T14:18:13.085Z,101634.00
2019-06-27T14:20:42.801Z,101632.00
2019-06-27T14:23:12.572Z,101625.00
2019-06-27T14:25:42.347Z,101607.00
2019-06-27T14:28:12.070Z,101640.00
2019-06-27T14:34:29.172Z,101626.00
2019-06-27T14:36:59.197Z,101621.00
2019-06-27T14:39:28.917Z,101618.00
2019-06-27T14:41:58.985Z,101621.00
2019-06-27T14:44:28.974Z,101626.00
2019-06-27T14:46:58.701Z,101629.00
2019-06-27T14:49:28.734Z,101628.00
2019-06-27T14:51:58.409Z,101620.00
2019-06-27T14:54:28.096Z,101628.00
2019-06-27T14:56:57.784Z,101623.00
2019-06-27T14:59:27.477Z,101623.00
2019-06-27T15:01:57.208Z,101613.00
2019-06-27T15:04:26.945Z,101614.00
2019-06-27T15:06:57.177Z,101624.00
2019-06-27T15:09:26.874Z,101625.00
2019-06-27T15:11:56.844Z,101607.00
2019-06-27T15:14:26.545Z,101597.00
2019-06-27T15:16:56.275Z,101614.00
2019-06-27T15:19:25.990Z,101595.00
2019-06-27T15:21:55.700Z,101600.00
2019-06-27T15:24:25.437Z,101598.00
2019-06-27T15:26:55.128Z,101593.00
2019-06-27T15:29:24.857Z,101591.00
2019-06-27T15:31:54.535Z,101597.00
2019-06-27T15:34:24.246Z,101593.00
2019-06-27T15:36:54.338Z,101587.00
2019-06-27T15:39:24.209Z,101581.00
2019-06-27T15:41:53.933Z,101581.00
2019-06-27T15:44:23.646Z,101574.00
2019-06-27T15:46:54.425Z,101591.00
2019-06-27T15:49:24.337Z,101579.00
2019-06-27T15:51:53.995Z,101582.00
2019-06-27T15:54:23.693Z,101571.00
2019-06-27T15:56:53.587Z,101574.00
2019-06-27T15:59:23.306Z,101577.00
2019-06-27T16:01:52.972Z,101588.00
2019-06-27T16:04:32.656Z,101579.00
2019-06-27T16:06:54.081Z,101575.00
2019-06-27T16:09:23.939Z,101582.00
2019-06-27T16:11:53.643Z,101580.00
2019-06-27T16:14:23.630Z,101583.00
2019-06-27T16:16:53.482Z,101579.00
2019-06-27T16:20:26.752Z,101580.00
2019-06-27T16:22:56.598Z,101581.00
2019-06-27T16:25:26.375Z,101577.00
2019-06-27T16:27:56.300Z,101581.00
2019-06-27T16:30:26.254Z,101588.00
2019-06-27T16:32:56.028Z,101581.00
2019-06-27T16:35:25.758Z,101583.00
2019-06-27T16:37:55.454Z,101590.00
2019-06-27T16:40:25.336Z,101586.00
2019-06-27T16:42:55.140Z,101585.00
2019-06-27T16:45:24.977Z,101579.00
2019-06-27T16:47:54.711Z,101577.00
2019-06-27T16:50:24.412Z,101575.00
2019-06-27T16:52:54.141Z,101575.00
2019-06-27T16:55:23.994Z,101570.00
2019-06-27T16:57:53.960Z,101582.00
2019-06-27T17:00:24.450Z,101586.00
2019-06-27T17:02:54.164Z,101581.00
2019-06-27T17:05:23.868Z,101581.00
2019-06-27T17:07:54.363Z,101579.00
2019-06-27T17:10:24.329Z,101576.00
2019-06-27T17:12:54.073Z,101579.00
2019-06-27T17:15:23.927Z,101581.00
2019-06-27T17:17:53.640Z,101585.00
2019-06-27T17:20:23.541Z,101579.00
2019-06-27T17:22:53.205Z,101579.00
2019-06-27T17:25:23.138Z,101582.00
2019-06-27T17:27:52.536Z,101578.00
2019-06-27T17:30:23.372Z,101584.00
2019-06-27T17:32:53.057Z,101587.00
2019-06-27T17:35:23.063Z,101584.00
2019-06-27T17:37:52.728Z,101589.00
2019-06-27T17:40:23.566Z,101597.00
2019-06-27T17:42:53.271Z,101584.00
2019-06-27T17:45:26.302Z,101588.00
2019-06-27T17:47:55.146Z,101589.00
2019-06-27T17:50:25.115Z,101596.00
2019-06-27T17:52:55.072Z,101592.00
2019-06-27T17:55:24.792Z,101594.00
2019-06-27T17:57:54.537Z,101600.00
2019-06-27T18:00:24.311Z,101596.00
2019-06-27T18:02:54.012Z,101604.00
2019-06-27T18:05:23.721Z,101599.00
2019-06-27T18:07:53.748Z,101601.00
2019-06-27T18:10:23.782Z,101603.00
2019-06-27T18:12:53.482Z,101596.00
2019-06-27T18:15:23.427Z,101598.00
2019-06-27T18:17:53.201Z,101606.00
2019-06-27T18:20:22.923Z,101600.00
2019-06-27T18:22:52.664Z,101609.00
2019-06-27T18:25:22.340Z,101613.00
2019-06-27T18:27:52.349Z,101606.00
2019-06-27T18:30:22.585Z,101605.00
2019-06-27T18:32:52.304Z,101605.00
2019-06-27T18:35:22.049Z,101604.00
2019-06-27T18:37:52.047Z,101606.00
2019-06-27T18:40:22.073Z,101599.00
2019-06-27T18:42:51.836Z,101618.00
2019-06-27T18:45:21.861Z,101605.00
2019-06-27T18:47:51.547Z,101615.00
2019-06-27T18:50:21.346Z,101620.00
2019-06-27T18:52:51.101Z,101621.00
2019-06-27T18:55:20.850Z,101618.00
2019-06-27T18:57:50.905Z,101630.00
2019-06-27T19:00:21.675Z,101622.00
2019-06-27T19:02:51.382Z,101622.00
2019-06-27T19:05:21.508Z,101623.00
2019-06-27T19:07:51.280Z,101632.00
2019-06-27T19:10:22.441Z,101626.00
2019-06-27T19:12:52.541Z,101625.00
2019-06-27T19:15:22.839Z,101634.00
2019-06-27T19:17:52.570Z,101635.00
2019-06-27T19:20:27.886Z,101645.00
2019-06-27T19:23:25.602Z,101647.00
2019-06-27T19:25:57.974Z,101655.00
2019-06-27T19:28:27.750Z,101647.00
2019-06-27T19:30:57.428Z,101650.00
2019-06-27T19:33:27.376Z,101667.00
2019-06-27T19:35:57.623Z,101670.00
2019-06-27T19:38:27.607Z,101667.00
2019-06-27T19:40:57.296Z,101676.00
2019-06-27T19:43:28.405Z,101683.00
2019-06-27T19:45:58.197Z,101684.00
2019-06-27T19:48:28.211Z,101685.00
2019-06-27T19:50:58.126Z,101688.00
2019-06-27T19:53:27.813Z,101698.00
2019-06-27T19:55:57.537Z,101687.00
2019-06-27T19:58:27.264Z,101689.00
2019-06-27T20:00:56.986Z,101690.00
2019-06-27T20:03:26.686Z,101698.00
2019-06-27T20:05:56.400Z,101697.00
2019-06-27T20:08:26.059Z,101699.00
2019-06-27T20:10:55.781Z,101708.00
2019-06-27T20:13:25.750Z,101703.00
2019-06-27T20:15:55.483Z,101704.00
2019-06-27T20:18:25.177Z,101708.00
2019-06-27T20:20:54.836Z,101710.00
2019-06-27T20:23:24.656Z,101718.00
2019-06-27T20:25:54.371Z,101716.00
2019-06-27T20:28:24.148Z,101720.00
2019-06-27T20:30:53.834Z,101721.00
2019-06-27T20:33:23.527Z,101723.00
2019-06-27T20:35:53.296Z,101725.00
2019-06-27T20:38:34.479Z,101716.00
2019-06-27T20:40:54.413Z,101730.00
2019-06-27T20:43:24.146Z,101720.00
2019-06-27T20:45:54.122Z,101726.00
2019-06-27T20:48:23.880Z,101729.00
2019-06-27T20:50:53.856Z,101728.00
2019-06-27T20:53:23.896Z,101739.00
2019-06-27T20:55:53.642Z,101729.00
2019-06-27T20:58:23.344Z,101733.00
2019-06-27T21:00:53.027Z,101735.00
2019-06-27T21:03:23.061Z,101739.00
2019-06-27T21:05:52.765Z,101748.00
2019-06-27T21:08:22.706Z,101745.00
2019-06-27T21:10:52.421Z,101752.00
2019-06-27T21:13:22.183Z,101753.00
2019-06-27T21:15:51.851Z,101753.00
2019-06-27T21:18:21.872Z,101757.00
2019-06-27T21:20:51.571Z,101752.00
2019-06-27T21:23:21.326Z,101759.00
2019-06-27T21:25:51.111Z,101766.00
2019-06-27T21:28:20.860Z,101767.00
2019-06-27T21:30:50.548Z,101759.00
2019-06-27T21:33:20.256Z,101765.00
2019-06-27T21:39:50.094Z,101768.00
2019-06-27T21:42:19.776Z,101768.00
2019-06-27T21:44:49.489Z,101769.00
2019-06-27T21:47:19.462Z,101781.00
2019-06-27T21:49:49.494Z,101771.00
2019-06-27T21:52:19.231Z,101770.00
2019-06-27T21:54:48.912Z,101768.00
2019-06-27T21:57:18.626Z,101765.00
2019-06-27T21:59:48.321Z,101772.00
2019-06-27T22:02:18.187Z,101770.00
2019-06-27T22:04:47.943Z,101771.00
2019-06-27T22:07:17.738Z,101776.00
2019-06-27T22:09:47.477Z,101773.00
2019-06-27T22:12:17.213Z,101775.00
2019-06-27T22:14:46.933Z,101769.00
2019-06-27T22:17:16.632Z,101772.00
2019-06-27T22:19:46.357Z,101773.00
2019-06-27T22:22:16.059Z,101774.00
2019-06-27T22:24:45.778Z,101790.00
2019-06-27T22:27:15.809Z,101775.00
2019-06-27T22:29:45.544Z,101779.00
2019-06-27T22:32:15.480Z,101786.00
2019-06-27T22:34:45.146Z,101780.00
2019-06-27T22:37:23.966Z,101786.00
2019-06-27T22:40:12.763Z,101784.00
2019-06-27T22:43:04.068Z,101783.00
2019-06-27T22:45:49.650Z,101784.00
2019-06-27T22:48:20.441Z,101779.00
2019-06-27T22:51:09.591Z,101781.00
2019-06-27T22:53:45.695Z,101783.00
2019-06-27T22:56:15.357Z,101780.00
2019-06-27T22:58:45.292Z,101776.00
2019-06-27T23:01:15.174Z,101776.00
2019-06-27T23:03:45.097Z,101779.00
2019-06-27T23:06:14.797Z,101776.00
2019-06-27T23:08:44.530Z,101784.00
2019-06-27T23:11:14.182Z,101787.00
2019-06-27T23:13:43.894Z,101784.00
2019-06-27T23:16:13.859Z,101786.00
2019-06-27T23:18:43.570Z,101778.00
2019-06-27T23:21:13.496Z,101782.00
2019-06-27T23:23:43.194Z,101778.00
2019-06-27T23:26:12.867Z,101784.00
2019-06-27T23:28:42.580Z,101771.00
2019-06-27T23:34:59.330Z,101781.00
2019-06-27T23:37:29.018Z,101777.00
2019-06-27T23:40:12.845Z,101773.00
2019-06-27T23:42:30.134Z,101771.00
2019-06-27T23:44:59.821Z,101773.00
2019-06-27T23:47:29.538Z,101765.00
2019-06-27T23:49:59.236Z,101772.00
2019-06-27T23:52:29.137Z,101764.00
2019-06-27T23:54:58.827Z,101764.00
2019-06-27T23:57:28.514Z,101757.00
2019-06-27T23:59:58.212Z,101754.00
